createdAt,value
2023-02-11T00:00:23.779Z,41.17
2023-02-11T00:04:45.766Z,40.35
2023-02-11T00:08:48.097Z,41.30
2023-02-11T00:12:50.660Z,43.28
2023-02-11T00:16:52.912Z,39.17
2023-02-11T00:20:55.219Z,36.70
2023-02-11T00:24:57.328Z,34.97
2023-02-11T00:29:00.954Z,38.55
2023-02-11T00:33:03.692Z,36.78
2023-02-11T00:37:07.923Z,31.42
2023-02-11T00:41:10.498Z,34.83
2023-02-11T00:45:13.286Z,35.60
2023-02-11T00:49:15.892Z,31.35
2023-02-11T00:53:18.053Z,29.70
2023-02-11T00:57:20.161Z,31.85
2023-02-11T01:01:22.784Z,30.15
2023-02-11T01:05:25.060Z,29.50
2023-02-11T01:09:27.222Z,31.38
2023-02-11T01:13:31.103Z,28.65
2023-02-11T01:17:34.713Z,31.15
2023-02-11T01:21:36.878Z,29.83
2023-02-11T01:25:38.769Z,30.25
2023-02-11T01:29:41.047Z,27.40
2023-02-11T01:33:43.255Z,30.00
2023-02-11T01:37:45.476Z,31.30
2023-02-11T01:41:47.499Z,30.35
2023-02-11T01:45:55.668Z,29.83
2023-02-11T01:50:00.810Z,28.73
2023-02-11T01:54:24.096Z,27.50
2023-02-11T01:58:30.350Z,27.33
2023-02-11T02:02:48.950Z,25.70
2023-02-11T02:06:59.323Z,28.13
2023-02-11T02:11:03.609Z,26.15
2023-02-11T02:15:32.742Z,25.15
2023-02-11T02:19:53.480Z,26.20
2023-02-11T02:24:21.958Z,24.60
2023-02-11T02:28:30.294Z,26.05
2023-02-11T02:36:46.277Z,25.38
2023-02-11T02:44:53.588Z,23.63
2023-02-11T02:48:57.018Z,25.85
2023-02-11T02:53:08.178Z,23.05
2023-02-11T02:57:30.525Z,26.52
2023-02-11T03:01:43.575Z,26.67
2023-02-11T03:05:57.115Z,22.88
2023-02-11T03:10:25.352Z,23.83
2023-02-11T03:14:30.634Z,23.70
2023-02-11T03:18:36.711Z,21.65
2023-02-11T03:22:47.953Z,24.02
2023-02-11T03:26:54.206Z,23.48
2023-02-11T03:31:24.068Z,21.13
2023-02-11T03:35:32.079Z,25.50
2023-02-11T03:39:38.187Z,22.38
2023-02-11T03:43:48.628Z,21.30
2023-02-11T03:48:29.723Z,21.85
2023-02-11T03:52:33.552Z,20.48
2023-02-11T03:56:42.206Z,25.13
2023-02-11T04:00:44.739Z,21.60
2023-02-11T04:04:47.229Z,23.90
2023-02-11T04:08:49.239Z,23.58
2023-02-11T04:12:51.259Z,22.75
2023-02-11T04:16:53.589Z,22.98
2023-02-11T04:20:55.640Z,24.42
2023-02-11T04:24:57.585Z,26.98
2023-02-11T04:28:59.566Z,23.40
2023-02-11T04:33:01.540Z,24.17
2023-02-11T04:37:03.558Z,25.35
2023-02-11T04:41:05.658Z,24.65
2023-02-11T04:45:08.072Z,26.85
2023-02-11T04:49:13.554Z,26.85
2023-02-11T04:53:15.554Z,25.63
2023-02-11T04:57:17.489Z,26.98
2023-02-11T05:01:19.618Z,28.40
2023-02-11T05:05:21.804Z,28.73
2023-02-11T05:09:23.750Z,30.10
2023-02-11T05:13:25.629Z,28.20
2023-02-11T05:17:27.637Z,28.65
2023-02-11T05:21:29.822Z,33.33
2023-02-11T05:25:31.857Z,29.75
2023-02-11T05:29:33.877Z,30.13
2023-02-11T05:33:35.977Z,33.88
2023-02-11T05:37:38.540Z,32.78
2023-02-11T05:41:40.585Z,29.20
2023-02-11T05:45:42.501Z,30.90
2023-02-11T05:49:44.474Z,28.20
2023-02-11T05:53:46.441Z,30.42
2023-02-11T05:57:48.436Z,29.02
2023-02-11T06:01:50.431Z,28.05
2023-02-11T06:05:52.614Z,28.77
2023-02-11T06:09:54.389Z,29.00
2023-02-11T06:13:56.356Z,29.55
2023-02-11T06:17:58.512Z,29.50
2023-02-11T06:22:00.522Z,29.73
2023-02-11T06:26:04.327Z,28.65
2023-02-11T06:30:07.561Z,30.75
2023-02-11T06:34:10.464Z,30.08
2023-02-11T06:38:12.423Z,30.77
2023-02-11T06:42:14.465Z,28.42
2023-02-11T06:46:16.592Z,29.90
2023-02-11T06:50:18.878Z,30.25
2023-02-11T06:54:20.853Z,32.08
2023-02-11T06:58:23.067Z,31.80
2023-02-11T07:02:25.276Z,32.78
2023-02-11T07:06:28.184Z,33.95
2023-02-11T07:10:30.367Z,33.17
2023-02-11T07:14:32.348Z,33.03
2023-02-11T07:18:34.437Z,38.17
2023-02-11T07:22:36.410Z,33.28
2023-02-11T07:26:38.672Z,36.25
2023-02-11T07:30:40.860Z,33.95
2023-02-11T07:34:42.834Z,36.20
2023-02-11T07:38:45.309Z,39.20
2023-02-11T07:42:47.302Z,39.75
2023-02-11T07:46:49.385Z,40.40
2023-02-11T07:50:51.444Z,39.60
2023-02-11T07:54:53.175Z,42.63
2023-02-11T07:58:56.794Z,42.67
2023-02-11T08:02:58.719Z,43.90
2023-02-11T08:07:00.806Z,44.65
2023-02-11T08:11:10.142Z,44.97
2023-02-11T08:15:12.353Z,45.85
2023-02-11T08:19:16.234Z,47.15
2023-02-11T08:23:17.862Z,48.85
2023-02-11T08:27:19.815Z,50.67
2023-02-11T08:31:29.362Z,53.97
2023-02-11T08:35:32.947Z,55.40
2023-02-11T08:39:35.018Z,57.78
2023-02-11T08:43:41.646Z,59.47
2023-02-11T08:47:43.695Z,63.55
2023-02-11T08:51:46.166Z,62.95
2023-02-11T08:55:53.007Z,59.97
2023-02-11T08:59:55.120Z,60.38
2023-02-11T09:03:58.703Z,60.22
2023-02-11T09:08:00.792Z,60.95
2023-02-11T09:12:02.851Z,56.92
2023-02-11T09:16:05.549Z,55.00
2023-02-11T09:20:10.769Z,51.47
2023-02-11T09:24:12.974Z,49.65
2023-02-11T09:28:14.989Z,50.42
2023-02-11T09:32:16.815Z,50.90
2023-02-11T09:36:24.233Z,52.35
2023-02-11T09:40:26.368Z,52.53
2023-02-11T09:44:31.454Z,51.72
2023-02-11T09:48:41.851Z,57.05
2023-02-11T09:53:04.059Z,57.33
2023-02-11T09:57:22.842Z,58.30
2023-02-11T10:01:49.881Z,66.20
2023-02-11T10:06:07.729Z,68.32
2023-02-11T10:10:30.630Z,67.03
2023-02-11T10:14:51.252Z,67.28
2023-02-11T10:19:14.460Z,63.95
2023-02-11T10:23:29.452Z,68.20
2023-02-11T10:27:33.858Z,68.82
2023-02-11T10:31:39.946Z,69.25
2023-02-11T10:35:43.855Z,71.55
2023-02-11T10:39:45.528Z,64.72
2023-02-11T10:43:48.040Z,64.38
2023-02-11T10:47:50.095Z,60.40
2023-02-11T10:52:17.364Z,64.03
2023-02-11T10:56:26.871Z,61.80
2023-02-11T11:00:40.892Z,71.40
2023-02-11T11:04:45.177Z,64.47
2023-02-11T11:08:51.645Z,64.47
2023-02-11T11:12:53.664Z,67.75
2023-02-11T11:16:55.758Z,64.65
2023-02-11T11:21:05.777Z,67.70
2023-02-11T11:25:29.364Z,67.18
2023-02-11T11:29:35.914Z,69.22
2023-02-11T11:33:42.865Z,80.47
2023-02-11T11:37:46.073Z,72.50
2023-02-11T11:42:00.369Z,70.40
2023-02-11T11:46:02.930Z,76.43
2023-02-11T11:50:27.823Z,72.03
2023-02-11T11:54:31.616Z,75.35
2023-02-11T11:58:34.739Z,77.30
2023-02-11T12:03:08.528Z,79.55
2023-02-11T12:07:31.694Z,77.22
2023-02-11T12:11:49.000Z,74.32
2023-02-11T12:16:07.032Z,76.68
2023-02-11T12:20:23.623Z,79.03
2023-02-11T12:24:56.090Z,77.95
2023-02-11T12:29:37.452Z,81.50
2023-02-11T12:33:57.501Z,80.90
2023-02-11T12:38:08.465Z,76.10
2023-02-11T12:42:51.690Z,75.00
2023-02-11T12:47:04.225Z,71.97
2023-02-11T12:51:12.987Z,74.13
2023-02-11T12:55:20.023Z,74.22
2023-02-11T12:59:44.737Z,68.70
2023-02-11T13:03:59.464Z,70.95
2023-02-11T13:08:15.534Z,66.60
2023-02-11T13:12:36.745Z,68.82
2023-02-11T13:16:42.530Z,67.68
2023-02-11T13:20:55.709Z,71.53
2023-02-11T13:25:15.494Z,73.18
2023-02-11T13:29:34.245Z,70.15
2023-02-11T13:33:39.516Z,69.97
2023-02-11T13:37:47.742Z,70.85
2023-02-11T13:41:52.845Z,68.03
2023-02-11T13:46:14.602Z,70.18
2023-02-11T13:50:23.611Z,71.95
2023-02-11T13:54:31.235Z,75.55
2023-02-11T13:58:37.202Z,73.80
2023-02-11T14:02:57.815Z,76.35
2023-02-11T14:07:44.466Z,73.93
2023-02-11T14:11:51.913Z,74.18
2023-02-11T14:16:10.595Z,76.65
2023-02-11T14:20:33.188Z,76.60
2023-02-11T14:24:35.266Z,75.15
2023-02-11T14:28:38.999Z,77.30
2023-02-11T14:33:18.426Z,72.63
2023-02-11T14:37:58.000Z,72.40
2023-02-11T14:46:03.734Z,68.88
2023-02-11T14:50:09.602Z,69.32
2023-02-11T14:54:22.837Z,65.60
2023-02-11T14:58:32.532Z,68.88
2023-02-11T15:02:39.181Z,68.18
2023-02-11T15:06:45.997Z,63.33
2023-02-11T15:10:48.066Z,67.53
2023-02-11T15:14:53.212Z,67.90
2023-02-11T15:19:01.059Z,73.95
2023-02-11T15:23:09.628Z,68.88
2023-02-11T15:27:16.165Z,64.00
2023-02-11T15:31:21.305Z,70.35
2023-02-11T15:35:23.602Z,67.65
2023-02-11T15:39:53.113Z,79.40
2023-02-11T15:43:55.111Z,72.45
2023-02-11T15:48:13.221Z,68.35
2023-02-11T15:52:24.114Z,63.13
2023-02-11T15:56:43.465Z,64.78
2023-02-11T16:00:54.668Z,63.92
2023-02-11T16:05:03.782Z,69.15
2023-02-11T16:09:33.662Z,61.15
2023-02-11T16:13:46.558Z,57.70
2023-02-11T16:17:48.813Z,59.45
2023-02-11T16:21:51.290Z,58.13
2023-02-11T16:26:33.012Z,55.00
2023-02-11T16:30:40.551Z,59.65
2023-02-11T16:34:42.652Z,51.90
2023-02-11T16:38:44.626Z,54.45
2023-02-11T16:42:46.820Z,62.83
2023-02-11T16:46:48.888Z,55.33
2023-02-11T16:50:53.540Z,48.95
2023-02-11T16:54:55.742Z,49.17
2023-02-11T16:58:57.688Z,49.13
2023-02-11T17:02:59.662Z,45.58
2023-02-11T17:07:01.738Z,46.08
2023-02-11T17:11:03.698Z,48.17
2023-02-11T17:15:07.593Z,44.45
2023-02-11T17:19:15.800Z,42.88
2023-02-11T17:23:17.807Z,45.20
2023-02-11T17:27:19.696Z,43.63
2023-02-11T17:31:22.020Z,42.45
2023-02-11T17:35:24.167Z,43.58
2023-02-11T17:39:26.762Z,39.50
2023-02-11T17:43:29.156Z,44.85
2023-02-11T17:47:31.336Z,38.58
2023-02-11T17:51:39.337Z,38.53
2023-02-11T17:55:41.455Z,37.58
2023-02-11T17:59:43.651Z,35.40
2023-02-11T18:03:45.824Z,36.08
2023-02-11T18:07:48.677Z,35.85
2023-02-11T18:11:52.648Z,33.45
2023-02-11T18:15:55.033Z,31.77
2023-02-11T18:19:57.424Z,31.60
2023-02-11T18:24:04.544Z,31.05
2023-02-11T18:28:08.474Z,32.33
2023-02-11T18:32:10.419Z,28.88
2023-02-11T18:36:14.907Z,28.85
2023-02-11T18:40:17.058Z,29.02
2023-02-11T18:44:22.347Z,28.83
2023-02-11T18:48:27.045Z,27.73
2023-02-11T18:52:29.232Z,25.55
2023-02-11T18:56:31.171Z,27.58
2023-02-11T19:00:33.837Z,29.63
2023-02-11T19:04:37.326Z,36.65
2023-02-11T19:08:39.436Z,36.55
2023-02-11T19:12:41.991Z,31.90
2023-02-11T19:16:45.958Z,31.95
2023-02-11T19:20:47.885Z,30.23
2023-02-11T19:24:49.964Z,28.08
2023-02-11T19:28:52.125Z,28.08
2023-02-11T19:32:57.136Z,26.40
2023-02-11T19:37:01.544Z,30.40
2023-02-11T19:41:05.122Z,30.52
2023-02-11T19:45:07.549Z,30.35
2023-02-11T19:49:14.469Z,28.63
2023-02-11T19:53:16.464Z,26.65
2023-02-11T19:57:18.538Z,26.38
2023-02-11T20:01:22.414Z,27.70
2023-02-11T20:05:24.488Z,27.65
2023-02-11T20:09:28.456Z,27.83
2023-02-11T20:13:30.764Z,26.13
2023-02-11T20:17:32.691Z,23.45
2023-02-11T20:21:34.780Z,25.25
2023-02-11T20:25:39.479Z,31.75
2023-02-11T20:29:41.576Z,29.95
2023-02-11T20:33:45.030Z,28.23
2023-02-11T20:37:47.086Z,30.08
2023-02-11T20:41:49.906Z,32.88
2023-02-11T20:45:52.230Z,28.70
2023-02-11T20:49:55.541Z,25.80
2023-02-11T20:53:57.662Z,26.35
2023-02-11T20:57:59.578Z,22.65
2023-02-11T21:02:01.747Z,19.95
2023-02-11T21:06:03.894Z,18.90
2023-02-11T21:10:06.232Z,17.13
2023-02-11T21:14:09.882Z,15.50
2023-02-11T21:18:11.871Z,13.07
2023-02-11T21:22:13.842Z,11.95
2023-02-11T21:26:16.954Z,8.45
2023-02-11T21:30:19.038Z,5.93
2023-02-11T21:34:21.215Z,5.97
2023-02-11T21:38:23.365Z,5.72
2023-02-11T21:42:25.384Z,4.90
2023-02-11T21:46:27.775Z,4.55
2023-02-11T21:50:29.860Z,5.40
2023-02-11T21:54:32.881Z,5.65
2023-02-11T21:58:35.703Z,4.68
2023-02-11T22:02:38.921Z,4.60
2023-02-11T22:06:41.066Z,3.95
2023-02-11T22:10:43.096Z,3.75
2023-02-11T22:14:47.120Z,3.35
2023-02-11T22:18:49.168Z,3.85
2023-02-11T22:22:51.113Z,3.88
2023-02-11T22:26:53.090Z,3.33
2023-02-11T22:30:56.332Z,3.22
2023-02-11T22:34:58.282Z,2.90
2023-02-11T22:39:02.827Z,3.13
2023-02-11T22:43:04.538Z,3.20
2023-02-11T22:47:06.586Z,3.45
2023-02-11T22:51:14.337Z,3.47
2023-02-11T22:55:16.435Z,4.55
2023-02-11T22:59:19.388Z,3.83
2023-02-11T23:03:21.432Z,2.67
2023-02-11T23:07:23.091Z,3.03
2023-02-11T23:11:28.199Z,2.10
2023-02-11T23:15:31.041Z,2.03
2023-02-11T23:19:32.730Z,2.92
2023-02-11T23:23:35.729Z,1.90
2023-02-11T23:27:37.538Z,2.30
2023-02-11T23:31:41.223Z,2.22
2023-02-11T23:35:43.594Z,2.25
2023-02-11T23:39:45.571Z,2.10
2023-02-11T23:43:52.139Z,2.33
2023-02-11T23:47:54.080Z,3.38
2023-02-11T23:51:56.217Z,2.70
2023-02-11T23:55:58.125Z,2.35
